SAS753 EKCH-EPGD
Flight info
| Callsign | SAS753 |
|---|---|
| Flight time | 0h 44m |
| Altitude | 29000 |
| Route | SIMEG Z491 TELMO DCT ASBAX DCT RUMAR L983 DOMAG T240 OGDAV |
| Aircraft | A320/M-SDE3FGHIJ1RWXYZ/ALB1 |
Departure
| Time | 2026-05-05 18:45 |
|---|---|
| Airport | Copenhagen Kastrup Airport (EKCH) |
Arrival
| Time | 2026-05-05 19:30 |
|---|---|
| Airport | Gdańsk Lech Wałęsa Airport (EPGD) |
| Time | Latitude | Longitude | Altitude | Speed | Heading |
|---|---|---|---|---|---|
| 2026-05-05 18:03 | 55.62722 | 12.65328 | 17 ft | 0 kts | 17° |
| 2026-05-05 18:29 | 55.62715 | 12.65324 | 18 ft | 3 kts | 18° |
| 2026-05-05 18:29 | 55.62694 | 12.65309 | 19 ft | 3 kts | 28° |
| 2026-05-05 18:29 | 55.62674 | 12.65288 | 20 ft | 3 kts | 40° |
| 2026-05-05 18:29 | 55.62658 | 12.65260 | 17 ft | 3 kts | 53° |
| 2026-05-05 18:30 | 55.62646 | 12.65226 | 19 ft | 3 kts | 68° |
| 2026-05-05 18:30 | 55.62645 | 12.65219 | 19 ft | 0 kts | 69° |
| 2026-05-05 18:35 | 55.62646 | 12.65227 | 19 ft | 1 kts | 70° |
| 2026-05-05 18:36 | 55.62647 | 12.65229 | 18 ft | 0 kts | 71° |
| 2026-05-05 18:36 | 55.62648 | 12.65247 | 17 ft | 4 kts | 81° |
| 2026-05-05 18:37 | 55.62622 | 12.65300 | 17 ft | 9 kts | 179° |
| 2026-05-05 18:37 | 55.62546 | 12.65320 | 17 ft | 13 kts | 174° |
| 2026-05-05 18:37 | 55.62465 | 12.65329 | 19 ft | 13 kts | 177° |
| 2026-05-05 18:37 | 55.62380 | 12.65329 | 17 ft | 10 kts | 179° |
| 2026-05-05 18:38 | 55.62306 | 12.65308 | 17 ft | 10 kts | 223° |
| 2026-05-05 18:38 | 55.62267 | 12.65200 | 17 ft | 11 kts | 193° |
| 2026-05-05 18:38 | 55.62194 | 12.65167 | 17 ft | 12 kts | 212° |
| 2026-05-05 18:38 | 55.62122 | 12.65082 | 19 ft | 13 kts | 214° |
| 2026-05-05 18:39 | 55.62059 | 12.65007 | 19 ft | 11 kts | 214° |
| 2026-05-05 18:39 | 55.62002 | 12.64943 | 18 ft | 10 kts | 212° |
| 2026-05-05 18:39 | 55.61937 | 12.64871 | 19 ft | 13 kts | 212° |
| 2026-05-05 18:39 | 55.61856 | 12.64774 | 17 ft | 15 kts | 217° |
| 2026-05-05 18:40 | 55.61765 | 12.64669 | 19 ft | 17 kts | 212° |
| 2026-05-05 18:40 | 55.61668 | 12.64559 | 17 ft | 14 kts | 213° |
| 2026-05-05 18:40 | 55.61604 | 12.64487 | 19 ft | 9 kts | 213° |
| 2026-05-05 18:40 | 55.61546 | 12.64421 | 17 ft | 11 kts | 213° |
| 2026-05-05 18:41 | 55.61484 | 12.64349 | 17 ft | 8 kts | 214° |
| 2026-05-05 18:41 | 55.61430 | 12.64285 | 17 ft | 10 kts | 214° |
| 2026-05-05 18:41 | 55.61364 | 12.64206 | 19 ft | 13 kts | 214° |
| 2026-05-05 18:41 | 55.61297 | 12.64131 | 18 ft | 10 kts | 210° |
| 2026-05-05 18:42 | 55.61233 | 12.64058 | 19 ft | 12 kts | 212° |
| 2026-05-05 18:42 | 55.61156 | 12.63972 | 17 ft | 14 kts | 213° |
| 2026-05-05 18:42 | 55.61068 | 12.63872 | 18 ft | 16 kts | 213° |
| 2026-05-05 18:42 | 55.60972 | 12.63759 | 17 ft | 14 kts | 214° |
| 2026-05-05 18:43 | 55.60886 | 12.63658 | 17 ft | 16 kts | 214° |
| 2026-05-05 18:43 | 55.60782 | 12.63614 | 17 ft | 16 kts | 152° |
| 2026-05-05 18:43 | 55.60700 | 12.63765 | 17 ft | 18 kts | 119° |
| 2026-05-05 18:43 | 55.60728 | 12.63955 | 19 ft | 16 kts | 43° |
| 2026-05-05 18:44 | 55.60756 | 12.63996 | 19 ft | 0 kts | 39° |
| 2026-05-05 18:44 | 55.60756 | 12.63997 | 19 ft | 1 kts | 39° |
| 2026-05-05 18:44 | 55.60877 | 12.64180 | 18 ft | 58 kts | 41° |
| 2026-05-05 18:44 | 55.61345 | 12.64905 | 18 ft | 118 kts | 40° |
| 2026-05-05 18:45 | 55.62085 | 12.66046 | 24 ft | 162 kts | 37° |
| 2026-05-05 18:45 | 55.62911 | 12.67380 | 636 ft | 156 kts | 40° |
| 2026-05-05 18:45 | 55.63695 | 12.68652 | 1363 ft | 151 kts | 41° |
| 2026-05-05 18:45 | 55.64479 | 12.69890 | 1944 ft | 156 kts | 39° |
| 2026-05-05 18:46 | 55.65363 | 12.71233 | 2238 ft | 179 kts | 38° |
| 2026-05-05 18:46 | 55.66386 | 12.72736 | 2566 ft | 204 kts | 38° |
| 2026-05-05 18:46 | 55.67546 | 12.74435 | 2991 ft | 228 kts | 38° |
| 2026-05-05 18:46 | 55.68810 | 12.76345 | 3594 ft | 247 kts | 44° |
| 2026-05-05 18:47 | 55.69758 | 12.78928 | 4454 ft | 257 kts | 68° |
| 2026-05-05 18:47 | 55.70032 | 12.82083 | 5288 ft | 266 kts | 91° |
| 2026-05-05 18:47 | 55.69514 | 12.85255 | 6130 ft | 274 kts | 118° |
| 2026-05-05 18:47 | 55.68241 | 12.87826 | 6771 ft | 284 kts | 145° |
| 2026-05-05 18:48 | 55.66454 | 12.89305 | 6958 ft | 284 kts | 161° |
| 2026-05-05 18:48 | 55.64590 | 12.90467 | 7006 ft | 284 kts | 163° |
| 2026-05-05 18:48 | 55.62661 | 12.91114 | 7008 ft | 282 kts | 179° |
| 2026-05-05 18:48 | 55.60723 | 12.90815 | 7004 ft | 279 kts | 195° |
| 2026-05-05 18:49 | 55.58912 | 12.89642 | 7006 ft | 277 kts | 209° |
| 2026-05-05 18:49 | 55.57158 | 12.88262 | 7014 ft | 280 kts | 191° |
| 2026-05-05 18:49 | 55.55215 | 12.88539 | 7697 ft | 286 kts | 162° |
| 2026-05-05 18:49 | 55.53474 | 12.90242 | 8584 ft | 290 kts | 140° |
| 2026-05-05 18:50 | 55.52107 | 12.92908 | 9389 ft | 296 kts | 131° |
| 2026-05-05 18:50 | 55.50785 | 12.95725 | 10135 ft | 301 kts | 132° |
| 2026-05-05 18:50 | 55.49396 | 12.98686 | 10370 ft | 325 kts | 132° |
| 2026-05-05 18:50 | 55.47915 | 13.01841 | 10736 ft | 340 kts | 132° |
| 2026-05-05 18:51 | 55.46392 | 13.05082 | 11354 ft | 346 kts | 132° |
| 2026-05-05 18:51 | 55.44846 | 13.08371 | 12018 ft | 351 kts | 132° |
| 2026-05-05 18:51 | 55.43278 | 13.11702 | 12675 ft | 356 kts | 133° |
| 2026-05-05 18:51 | 55.41687 | 13.15071 | 13327 ft | 360 kts | 133° |
| 2026-05-05 18:52 | 55.40074 | 13.18476 | 13971 ft | 365 kts | 133° |
| 2026-05-05 18:52 | 55.38439 | 13.21919 | 14571 ft | 368 kts | 133° |
| 2026-05-05 18:52 | 55.36789 | 13.25397 | 15151 ft | 372 kts | 134° |
| 2026-05-05 18:52 | 55.35124 | 13.28904 | 15757 ft | 376 kts | 134° |
| 2026-05-05 18:53 | 55.33441 | 13.32440 | 16344 ft | 379 kts | 134° |
| 2026-05-05 18:53 | 55.31742 | 13.36004 | 16933 ft | 383 kts | 134° |
| 2026-05-05 18:53 | 55.30020 | 13.39605 | 17515 ft | 386 kts | 134° |
| 2026-05-05 18:53 | 55.28287 | 13.43229 | 18088 ft | 390 kts | 134° |
| 2026-05-05 18:54 | 55.26532 | 13.46902 | 18609 ft | 394 kts | 134° |
| 2026-05-05 18:54 | 55.24846 | 13.50733 | 19129 ft | 402 kts | 127° |
| 2026-05-05 18:54 | 55.23450 | 13.55028 | 19651 ft | 407 kts | 122° |
| 2026-05-05 18:54 | 55.22089 | 13.59382 | 20180 ft | 411 kts | 122° |
| 2026-05-05 18:55 | 55.20702 | 13.63805 | 20696 ft | 415 kts | 122° |
| 2026-05-05 18:55 | 55.19558 | 13.68486 | 21184 ft | 424 kts | 107° |
| 2026-05-05 18:55 | 55.19104 | 13.73563 | 21661 ft | 431 kts | 98° |
| 2026-05-05 18:55 | 55.18792 | 13.78790 | 22143 ft | 434 kts | 97° |
| 2026-05-05 18:56 | 55.18491 | 13.84076 | 22633 ft | 439 kts | 97° |
| 2026-05-05 18:56 | 55.18191 | 13.89413 | 23129 ft | 442 kts | 97° |
| 2026-05-05 18:56 | 55.17884 | 13.94784 | 23602 ft | 446 kts | 97° |
| 2026-05-05 18:56 | 55.17564 | 14.00196 | 24007 ft | 449 kts | 98° |
| 2026-05-05 18:57 | 55.17235 | 14.05652 | 24413 ft | 452 kts | 98° |
| 2026-05-05 18:57 | 55.16897 | 14.11216 | 24812 ft | 456 kts | 98° |
| 2026-05-05 18:57 | 55.16560 | 14.16750 | 25206 ft | 459 kts | 98° |
| 2026-05-05 18:57 | 55.16221 | 14.22312 | 25586 ft | 462 kts | 98° |
| 2026-05-05 18:58 | 55.15876 | 14.27914 | 25963 ft | 465 kts | 98° |
| 2026-05-05 18:58 | 55.15523 | 14.33548 | 26335 ft | 468 kts | 98° |
| 2026-05-05 18:58 | 55.15165 | 14.39224 | 26699 ft | 471 kts | 99° |
| 2026-05-05 18:58 | 55.14807 | 14.44846 | 26999 ft | 475 kts | 99° |
| 2026-05-05 18:59 | 55.14438 | 14.50612 | 27310 ft | 478 kts | 99° |
| 2026-05-05 18:59 | 55.14065 | 14.56404 | 27641 ft | 482 kts | 99° |
| 2026-05-05 18:59 | 55.13678 | 14.62324 | 27989 ft | 485 kts | 99° |
| 2026-05-05 18:59 | 55.13296 | 14.68114 | 28319 ft | 488 kts | 99° |
| 2026-05-05 19:00 | 55.12901 | 14.74090 | 28648 ft | 491 kts | 99° |
| 2026-05-05 19:00 | 55.12507 | 14.80033 | 28887 ft | 493 kts | 99° |
| 2026-05-05 19:00 | 55.12119 | 14.85899 | 28922 ft | 479 kts | 99° |
| 2026-05-05 19:00 | 55.11741 | 14.91632 | 28918 ft | 473 kts | 99° |
| 2026-05-05 19:01 | 55.10974 | 15.02922 | 28927 ft | 471 kts | 100° |
| 2026-05-05 19:01 | 55.10182 | 15.14265 | 28925 ft | 470 kts | 100° |
| 2026-05-05 19:02 | 55.09385 | 15.25603 | 28925 ft | 470 kts | 100° |
| 2026-05-05 19:02 | 55.08585 | 15.36922 | 28926 ft | 470 kts | 100° |
| 2026-05-05 19:03 | 55.07769 | 15.48243 | 28930 ft | 470 kts | 100° |
| 2026-05-05 19:04 | 55.06139 | 15.70478 | 28929 ft | 470 kts | 101° |
| 2026-05-05 19:04 | 55.05291 | 15.81783 | 28938 ft | 470 kts | 101° |
| 2026-05-05 19:05 | 55.04436 | 15.93073 | 28934 ft | 470 kts | 101° |
| 2026-05-05 19:05 | 55.03572 | 16.04350 | 28935 ft | 469 kts | 101° |
| 2026-05-05 19:06 | 55.02912 | 16.15688 | 28938 ft | 471 kts | 96° |
| 2026-05-05 19:06 | 55.02420 | 16.27050 | 28866 ft | 464 kts | 107° |
| 2026-05-05 19:07 | 55.01429 | 16.32274 | 28592 ft | 448 kts | 118° |
| 2026-05-05 19:07 | 55.00241 | 16.37255 | 28315 ft | 441 kts | 118° |
| 2026-05-05 19:07 | 54.99063 | 16.42149 | 28048 ft | 435 kts | 118° |
| 2026-05-05 19:07 | 54.97895 | 16.46979 | 27770 ft | 432 kts | 118° |
| 2026-05-05 19:08 | 54.96730 | 16.51780 | 27498 ft | 429 kts | 118° |
| 2026-05-05 19:08 | 54.95572 | 16.56545 | 27246 ft | 427 kts | 118° |
| 2026-05-05 19:08 | 54.94422 | 16.61284 | 26973 ft | 425 kts | 118° |
| 2026-05-05 19:08 | 54.93273 | 16.66011 | 26705 ft | 422 kts | 118° |
| 2026-05-05 19:09 | 54.92131 | 16.70703 | 26447 ft | 421 kts | 118° |
| 2026-05-05 19:09 | 54.90994 | 16.75372 | 26195 ft | 419 kts | 118° |
| 2026-05-05 19:09 | 54.89860 | 16.80023 | 25939 ft | 417 kts | 118° |
| 2026-05-05 19:09 | 54.88729 | 16.84637 | 25685 ft | 415 kts | 118° |
| 2026-05-05 19:10 | 54.87599 | 16.89231 | 25444 ft | 413 kts | 118° |
| 2026-05-05 19:10 | 54.86471 | 16.93805 | 25194 ft | 411 kts | 118° |
| 2026-05-05 19:10 | 54.85348 | 16.98360 | 24956 ft | 409 kts | 118° |
| 2026-05-05 19:10 | 54.84230 | 17.02888 | 24714 ft | 408 kts | 118° |
| 2026-05-05 19:11 | 54.83126 | 17.07340 | 24455 ft | 406 kts | 118° |
| 2026-05-05 19:11 | 54.82001 | 17.11874 | 24213 ft | 403 kts | 118° |
| 2026-05-05 19:11 | 54.80894 | 17.16330 | 23980 ft | 401 kts | 118° |
| 2026-05-05 19:11 | 54.79792 | 17.20761 | 23748 ft | 400 kts | 118° |
| 2026-05-05 19:12 | 54.78706 | 17.25127 | 23518 ft | 399 kts | 118° |
| 2026-05-05 19:12 | 54.77596 | 17.29583 | 23244 ft | 397 kts | 118° |
| 2026-05-05 19:12 | 54.76504 | 17.33959 | 22978 ft | 395 kts | 118° |
| 2026-05-05 19:12 | 54.75414 | 17.38313 | 22696 ft | 393 kts | 118° |
| 2026-05-05 19:13 | 54.74342 | 17.42585 | 22426 ft | 391 kts | 118° |
| 2026-05-05 19:13 | 54.73260 | 17.46883 | 22149 ft | 389 kts | 118° |
| 2026-05-05 19:13 | 54.72177 | 17.51171 | 21894 ft | 387 kts | 118° |
| 2026-05-05 19:13 | 54.71099 | 17.55427 | 21622 ft | 385 kts | 118° |
| 2026-05-05 19:14 | 54.70028 | 17.59648 | 21357 ft | 382 kts | 118° |
| 2026-05-05 19:14 | 54.68963 | 17.63839 | 21099 ft | 380 kts | 118° |
| 2026-05-05 19:14 | 54.67902 | 17.68008 | 20845 ft | 378 kts | 118° |
| 2026-05-05 19:14 | 54.66846 | 17.72151 | 20589 ft | 376 kts | 118° |
| 2026-05-05 19:15 | 54.65792 | 17.76272 | 20339 ft | 374 kts | 118° |
| 2026-05-05 19:15 | 54.64741 | 17.80373 | 20094 ft | 372 kts | 118° |
| 2026-05-05 19:15 | 54.63693 | 17.84448 | 19845 ft | 371 kts | 118° |
| 2026-05-05 19:15 | 54.62649 | 17.88507 | 19603 ft | 369 kts | 118° |
| 2026-05-05 19:16 | 54.61616 | 17.92539 | 19313 ft | 365 kts | 118° |
| 2026-05-05 19:16 | 54.60576 | 17.96582 | 18372 ft | 373 kts | 118° |
| 2026-05-05 19:16 | 54.59502 | 18.00729 | 16985 ft | 385 kts | 117° |
| 2026-05-05 19:16 | 54.58393 | 18.04993 | 15544 ft | 395 kts | 117° |
| 2026-05-05 19:17 | 54.57287 | 18.09267 | 14973 ft | 380 kts | 117° |
| 2026-05-05 19:17 | 54.56248 | 18.13313 | 14600 ft | 361 kts | 117° |
| 2026-05-05 19:17 | 54.55243 | 18.17213 | 13957 ft | 353 kts | 117° |
| 2026-05-05 19:17 | 54.54251 | 18.21030 | 13305 ft | 345 kts | 117° |
| 2026-05-05 19:18 | 54.53290 | 18.24721 | 12927 ft | 330 kts | 117° |
| 2026-05-05 19:18 | 54.52369 | 18.28254 | 12543 ft | 317 kts | 117° |
| 2026-05-05 19:18 | 54.51482 | 18.31649 | 12158 ft | 305 kts | 117° |
| 2026-05-05 19:18 | 54.50609 | 18.34970 | 11338 ft | 310 kts | 117° |
| 2026-05-05 19:19 | 54.49715 | 18.38358 | 10700 ft | 309 kts | 117° |
| 2026-05-05 19:19 | 54.48833 | 18.41704 | 10139 ft | 305 kts | 116° |
| 2026-05-05 19:19 | 54.47964 | 18.44996 | 9677 ft | 297 kts | 116° |
| 2026-05-05 19:19 | 54.47116 | 18.48207 | 9542 ft | 298 kts | 116° |
| 2026-05-05 19:20 | 54.46254 | 18.51464 | 9395 ft | 299 kts | 117° |
| 2026-05-05 19:20 | 54.45393 | 18.54718 | 9265 ft | 299 kts | 116° |
| 2026-05-05 19:20 | 54.44536 | 18.57958 | 9134 ft | 297 kts | 116° |
| 2026-05-05 19:20 | 54.43696 | 18.61132 | 8833 ft | 285 kts | 116° |
| 2026-05-05 19:21 | 54.42891 | 18.64167 | 8500 ft | 273 kts | 116° |
| 2026-05-05 19:21 | 54.42112 | 18.67094 | 8171 ft | 268 kts | 116° |
| 2026-05-05 19:21 | 54.41343 | 18.69971 | 7848 ft | 268 kts | 116° |
| 2026-05-05 19:21 | 54.40568 | 18.72868 | 7518 ft | 267 kts | 116° |
| 2026-05-05 19:22 | 54.39797 | 18.75749 | 7188 ft | 265 kts | 116° |
| 2026-05-05 19:22 | 54.39033 | 18.78612 | 6861 ft | 263 kts | 116° |
| 2026-05-05 19:22 | 54.38275 | 18.81453 | 6579 ft | 260 kts | 116° |
| 2026-05-05 19:22 | 54.37535 | 18.84220 | 6225 ft | 252 kts | 116° |
| 2026-05-05 19:23 | 54.36816 | 18.86891 | 6061 ft | 246 kts | 116° |
| 2026-05-05 19:23 | 54.36097 | 18.89565 | 5926 ft | 247 kts | 115° |
| 2026-05-05 19:23 | 54.35269 | 18.92155 | 5484 ft | 250 kts | 135° |
| 2026-05-05 19:23 | 54.33785 | 18.93604 | 4941 ft | 251 kts | 173° |
| 2026-05-05 19:24 | 54.32084 | 18.93284 | 4725 ft | 247 kts | 199° |
| 2026-05-05 19:24 | 54.30570 | 18.91957 | 4434 ft | 245 kts | 218° |
| 2026-05-05 19:24 | 54.29406 | 18.89851 | 4093 ft | 244 kts | 238° |
| 2026-05-05 19:24 | 54.28722 | 18.87210 | 3730 ft | 244 kts | 257° |
| 2026-05-05 19:25 | 54.28592 | 18.84339 | 3293 ft | 241 kts | 278° |
| 2026-05-05 19:25 | 54.29017 | 18.81672 | 3046 ft | 225 kts | 295° |
| 2026-05-05 19:25 | 54.29614 | 18.79294 | 2828 ft | 213 kts | 295° |
| 2026-05-05 19:25 | 54.29999 | 18.77762 | 2622 ft | 210 kts | 295° |
| 2026-05-05 19:26 | 54.30578 | 18.75457 | 2611 ft | 212 kts | 295° |
| 2026-05-05 19:26 | 54.31356 | 18.72351 | 2609 ft | 213 kts | 295° |
| 2026-05-05 19:26 | 54.31743 | 18.70801 | 2614 ft | 213 kts | 295° |
| 2026-05-05 19:26 | 54.32327 | 18.68468 | 2602 ft | 213 kts | 295° |
| 2026-05-05 19:27 | 54.32909 | 18.66136 | 2589 ft | 214 kts | 295° |
| 2026-05-05 19:27 | 54.33485 | 18.63826 | 2415 ft | 204 kts | 295° |
| 2026-05-05 19:27 | 54.34019 | 18.61679 | 2123 ft | 185 kts | 295° |
| 2026-05-05 19:27 | 54.34496 | 18.59759 | 1882 ft | 167 kts | 296° |
| 2026-05-05 19:28 | 54.34937 | 18.57987 | 1681 ft | 158 kts | 296° |
| 2026-05-05 19:28 | 54.35363 | 18.56278 | 1459 ft | 155 kts | 297° |
| 2026-05-05 19:28 | 54.35781 | 18.54597 | 1232 ft | 152 kts | 296° |
| 2026-05-05 19:28 | 54.36194 | 18.52932 | 1015 ft | 152 kts | 295° |
| 2026-05-05 19:29 | 54.36611 | 18.51267 | 797 ft | 152 kts | 294° |
| 2026-05-05 19:29 | 54.37022 | 18.49600 | 630 ft | 152 kts | 294° |
| 2026-05-05 19:29 | 54.37437 | 18.47919 | 471 ft | 150 kts | 295° |
| 2026-05-05 19:29 | 54.37787 | 18.46534 | 457 ft | 82 kts | 292° |
| 2026-05-05 19:30 | 54.37916 | 18.46031 | 456 ft | 37 kts | 297° |
| 2026-05-05 19:30 | 54.38061 | 18.45762 | 455 ft | 21 kts | 324° |
| 2026-05-05 19:30 | 54.38125 | 18.45800 | 455 ft | 12 kts | 94° |
| 2026-05-05 19:30 | 54.38105 | 18.45938 | 458 ft | 12 kts | 107° |
| 2026-05-05 19:31 | 54.38099 | 18.45970 | 459 ft | 11 kts | 111° |
| 2026-05-05 19:31 | 54.38078 | 18.46050 | 459 ft | 12 kts | 109° |
| 2026-05-05 19:31 | 54.38045 | 18.46201 | 457 ft | 15 kts | 119° |
| 2026-05-05 19:31 | 54.38002 | 18.46356 | 457 ft | 15 kts | 112° |
| 2026-05-05 19:32 | 54.37969 | 18.46504 | 459 ft | 12 kts | 96° |
| 2026-05-05 19:32 | 54.38025 | 18.46610 | 460 ft | 14 kts | 16° |
| 2026-05-05 19:32 | 54.38112 | 18.46617 | 460 ft | 0 kts | 22° |